Time,TemperatureF,DewpointF,PressureIn,WindDirection,WindDirectionDegrees,WindSpeedMPH,WindSpeedGustMPH,Humidity,HourlyPrecipIn,Conditions,Clouds,dailyrainin,SoftwareType,DateUTC
2013-05-10 00:00:00,55.2,52.9,29.88,ENE,74,0.0,0.0,92,0.00,,,0.00,Wunderground v.1.15,2013-05-10 04:00:00,
2013-05-10 00:05:00,55.1,53.1,29.88,ENE,74,0.0,0.0,93,0.00,,,0.00,Wunderground v.1.15,2013-05-10 04:05:00,
2013-05-10 00:10:00,55.1,53.1,29.88,ENE,74,0.0,0.0,93,0.00,,,0.00,Wunderground v.1.15,2013-05-10 04:10:00,
2013-05-10 00:21:00,55.2,53.2,29.88,ENE,74,0.0,0.0,93,0.00,,,0.00,Wunderground v.1.15,2013-05-10 04:21:00,
2013-05-10 00:25:00,55.1,53.1,29.88,ENE,74,0.0,0.0,93,0.00,,,0.00,Wunderground v.1.15,2013-05-10 04:25:00,
2013-05-10 00:30:00,54.9,53.2,29.88,ENE,74,0.0,0.0,94,0.00,,,0.00,Wunderground v.1.15,2013-05-10 04:30:00,
2013-05-10 00:35:00,54.9,53.2,29.88,ENE,74,0.0,0.0,94,0.00,,,0.00,Wunderground v.1.15,2013-05-10 04:35:00,
2013-05-10 00:41:00,54.8,53.1,29.87,ENE,74,0.0,0.0,94,0.00,,,0.00,Wunderground v.1.15,2013-05-10 04:41:00,
2013-05-10 00:46:00,54.8,53.1,29.88,ENE,74,1.0,2.0,94,0.00,,,0.00,Wunderground v.1.15,2013-05-10 04:46:00,
2013-05-10 00:50:00,55.0,53.3,29.88,ENE,74,1.0,2.0,94,0.00,,,0.00,Wunderground v.1.15,2013-05-10 04:50:00,
2013-05-10 00:55:00,55.0,53.3,29.88,ENE,74,0.0,0.0,94,0.00,,,0.00,Wunderground v.1.15,2013-05-10 04:55:00,
2013-05-10 01:01:00,54.8,53.1,29.87,ENE,74,0.0,1.0,94,0.00,,,0.00,Wunderground v.1.15,2013-05-10 05:01:00,
2013-05-10 01:11:00,54.5,52.8,29.87,ENE,74,0.0,0.0,94,0.00,,,0.00,Wunderground v.1.15,2013-05-10 05:11:00,
2013-05-10 01:21:00,54.3,52.6,29.87,ENE,74,0.0,0.0,94,0.00,,,0.00,Wunderground v.1.15,2013-05-10 05:21:00,
2013-05-10 01:25:00,54.3,52.6,29.87,ENE,74,0.0,0.0,94,0.00,,,0.00,Wunderground v.1.15,2013-05-10 05:25:00,
2013-05-10 01:31:00,54.2,52.5,29.87,ENE,74,0.0,0.0,94,0.00,,,0.00,Wunderground v.1.15,2013-05-10 05:31:00,
2013-05-10 01:36:00,54.2,52.5,29.87,ENE,74,0.0,0.0,94,0.00,,,0.00,Wunderground v.1.15,2013-05-10 05:36:00,
2013-05-10 01:45:00,54.1,52.4,29.88,ENE,74,1.0,2.0,94,0.00,,,0.00,Wunderground v.1.15,2013-05-10 05:45:00,
2013-05-10 01:51:00,54.0,52.3,29.88,ENE,74,0.0,0.0,94,0.00,,,0.00,Wunderground v.1.15,2013-05-10 05:51:00,
2013-05-10 01:56:00,54.0,52.6,29.88,ENE,74,0.0,0.0,95,0.00,,,0.00,Wunderground v.1.15,2013-05-10 05:56:00,
2013-05-10 02:05:00,54.1,52.7,29.88,ENE,74,0.0,0.0,95,0.00,,,0.00,Wunderground v.1.15,2013-05-10 06:05:00,
2013-05-10 02:11:00,54.0,52.6,29.88,ENE,74,0.0,0.0,95,0.00,,,0.00,Wunderground v.1.15,2013-05-10 06:11:00,
2013-05-10 02:16:00,53.9,52.5,29.88,ENE,74,0.0,0.0,95,0.00,,,0.00,Wunderground v.1.15,2013-05-10 06:16:00,
2013-05-10 02:20:00,53.9,52.5,29.88,ENE,74,0.0,0.0,95,0.00,,,0.00,Wunderground v.1.15,2013-05-10 06:20:00,
2013-05-10 02:26:00,53.9,52.5,29.88,ENE,74,0.0,0.0,95,0.00,,,0.00,Wunderground v.1.15,2013-05-10 06:26:00,
2013-05-10 02:31:00,53.8,52.4,29.87,ENE,74,0.0,0.0,95,0.00,,,0.00,Wunderground v.1.15,2013-05-10 06:31:00,
2013-05-10 02:36:00,53.7,52.3,29.87,ENE,74,0.0,0.0,95,0.00,,,0.00,Wunderground v.1.15,2013-05-10 06:36:00,
2013-05-10 02:40:00,53.6,52.2,29.87,ENE,74,0.0,0.0,95,0.00,,,0.00,Wunderground v.1.15,2013-05-10 06:40:00,
2013-05-10 02:46:00,53.6,52.2,29.87,ENE,74,0.0,0.0,95,0.00,,,0.00,Wunderground v.1.15,2013-05-10 06:46:00,
2013-05-10 02:51:00,53.6,52.2,29.87,ENE,74,0.0,0.0,95,0.00,,,0.00,Wunderground v.1.15,2013-05-10 06:51:00,
2013-05-10 02:56:00,53.7,52.3,29.87,ENE,74,0.0,1.0,95,0.00,,,0.00,Wunderground v.1.15,2013-05-10 06:56:00,
2013-05-10 03:01:00,53.9,52.8,29.87,ENE,74,1.0,1.0,96,0.00,,,0.00,Wunderground v.1.15,2013-05-10 07:01:00,
2013-05-10 03:15:00,53.6,52.2,29.88,ENE,74,0.0,0.0,95,0.00,,,0.00,Wunderground v.1.15,2013-05-10 07:15:00,
2013-05-10 03:21:00,53.5,52.1,29.88,ENE,74,0.0,0.0,95,0.00,,,0.00,Wunderground v.1.15,2013-05-10 07:21:00,
2013-05-10 03:26:00,53.5,52.1,29.89,ENE,74,0.0,0.0,95,0.00,,,0.00,Wunderground v.1.15,2013-05-10 07:26:00,
2013-05-10 03:31:00,53.5,52.1,29.89,ENE,74,0.0,0.0,95,0.00,,,0.00,Wunderground v.1.15,2013-05-10 07:31:00,
2013-05-10 03:36:00,53.4,52.0,29.88,ENE,74,0.0,0.0,95,0.00,,,0.00,Wunderground v.1.15,2013-05-10 07:36:00,
2013-05-10 03:46:00,53.3,51.9,29.89,ENE,74,0.0,0.0,95,0.00,,,0.00,Wunderground v.1.15,2013-05-10 07:46:00,
2013-05-10 03:51:00,53.3,51.9,29.89,ENE,74,0.0,0.0,95,0.00,,,0.00,Wunderground v.1.15,2013-05-10 07:51:00,
2013-05-10 03:55:00,53.2,51.8,29.89,ENE,74,0.0,0.0,95,0.00,,,0.00,Wunderground v.1.15,2013-05-10 07:55:00,
2013-05-10 04:00:00,53.2,51.8,29.89,ENE,74,0.0,0.0,95,0.00,,,0.00,Wunderground v.1.15,2013-05-10 08:00:00,
2013-05-10 04:06:00,53.1,51.7,29.89,ENE,74,0.0,0.0,95,0.00,,,0.00,Wunderground v.1.15,2013-05-10 08:06:00,
2013-05-10 04:11:00,53.1,51.7,29.89,ENE,74,0.0,0.0,95,0.00,,,0.00,Wunderground v.1.15,2013-05-10 08:11:00,
2013-05-10 04:21:00,52.8,51.4,29.89,ENE,74,0.0,1.0,95,0.00,,,0.00,Wunderground v.1.15,2013-05-10 08:21:00,
2013-05-10 04:25:00,52.8,51.7,29.89,ENE,74,0.0,1.0,96,0.00,,,0.00,Wunderground v.1.15,2013-05-10 08:25:00,
2013-05-10 04:30:00,52.9,51.8,29.89,ENE,74,0.0,2.0,96,0.00,,,0.00,Wunderground v.1.15,2013-05-10 08:30:00,
2013-05-10 04:36:00,52.8,51.7,29.89,ENE,74,0.0,2.0,96,0.00,,,0.00,Wunderground v.1.15,2013-05-10 08:36:00,
2013-05-10 04:41:00,52.8,51.7,29.89,ENE,74,0.0,0.0,96,0.00,,,0.00,Wunderground v.1.15,2013-05-10 08:41:00,
2013-05-10 04:46:00,52.8,51.7,29.89,ENE,74,0.0,0.0,96,0.00,,,0.00,Wunderground v.1.15,2013-05-10 08:46:00,
2013-05-10 04:50:00,52.8,51.7,29.89,ENE,74,0.0,3.0,96,0.00,,,0.00,Wunderground v.1.15,2013-05-10 08:50:00,
2013-05-10 04:55:00,52.8,51.7,29.90,ENE,74,1.0,3.0,96,0.00,,,0.00,Wunderground v.1.15,2013-05-10 08:55:00,
2013-05-10 05:01:00,52.9,51.8,29.90,ENE,74,1.0,1.0,96,0.00,,,0.00,Wunderground v.1.15,2013-05-10 09:01:00,
2013-05-10 05:06:00,52.9,51.8,29.90,ENE,74,1.0,1.0,96,0.00,,,0.00,Wunderground v.1.15,2013-05-10 09:06:00,
2013-05-10 05:10:00,53.0,51.9,29.90,ENE,74,0.0,0.0,96,0.00,,,0.00,Wunderground v.1.15,2013-05-10 09:10:00,
2013-05-10 05:16:00,53.0,51.9,29.90,ENE,74,0.0,0.0,96,0.00,,,0.00,Wunderground v.1.15,2013-05-10 09:16:00,
2013-05-10 05:21:00,53.1,52.0,29.90,ENE,74,0.0,0.0,96,0.00,,,0.00,Wunderground v.1.15,2013-05-10 09:21:00,
2013-05-10 05:26:00,53.2,52.1,29.90,ENE,74,0.0,0.0,96,0.00,,,0.00,Wunderground v.1.15,2013-05-10 09:26:00,
2013-05-10 05:35:00,53.1,52.0,29.90,ENE,74,0.0,0.0,96,0.00,,,0.00,Wunderground v.1.15,2013-05-10 09:35:00,
2013-05-10 05:41:00,53.1,52.0,29.90,ENE,74,0.0,0.0,96,0.00,,,0.00,Wunderground v.1.15,2013-05-10 09:41:00,
2013-05-10 05:46:00,53.0,51.9,29.91,ENE,74,0.0,0.0,96,0.00,,,0.00,Wunderground v.1.15,2013-05-10 09:46:00,
2013-05-10 05:50:00,53.1,52.0,29.91,ENE,74,0.0,0.0,96,0.00,,,0.00,Wunderground v.1.15,2013-05-10 09:50:00,
2013-05-10 06:01:00,53.0,51.9,29.91,ENE,74,0.0,0.0,96,0.00,,,0.00,Wunderground v.1.15,2013-05-10 10:01:00,
2013-05-10 06:05:00,53.0,51.9,29.91,ENE,74,0.0,0.0,96,0.00,,,0.00,Wunderground v.1.15,2013-05-10 10:05:00,
2013-05-10 06:10:00,53.0,51.9,29.91,ENE,74,0.0,0.0,96,0.00,,,0.00,Wunderground v.1.15,2013-05-10 10:10:00,
2013-05-10 06:15:00,53.1,52.0,29.91,ENE,74,0.0,0.0,96,0.00,,,0.00,Wunderground v.1.15,2013-05-10 10:15:00,
2013-05-10 06:21:00,53.2,52.1,29.91,ENE,74,0.0,0.0,96,0.00,,,0.00,Wunderground v.1.15,2013-05-10 10:21:00,
2013-05-10 06:25:00,53.4,52.3,29.92,ENE,74,0.0,0.0,96,0.00,,,0.00,Wunderground v.1.15,2013-05-10 10:25:00,
2013-05-10 06:30:00,53.6,52.5,29.92,ENE,74,0.0,0.0,96,0.00,,,0.00,Wunderground v.1.15,2013-05-10 10:30:00,
2013-05-10 06:36:00,53.9,53.1,29.92,ENE,74,0.0,0.0,97,0.00,,,0.00,Wunderground v.1.15,2013-05-10 10:36:00,
2013-05-10 06:40:00,54.0,53.2,29.92,ENE,74,0.0,0.0,97,0.00,,,0.00,Wunderground v.1.15,2013-05-10 10:40:00,
2013-05-10 06:45:00,54.3,53.5,29.92,ENE,74,0.0,0.0,97,0.00,,,0.00,Wunderground v.1.15,2013-05-10 10:45:00,
2013-05-10 06:50:00,54.6,53.8,29.92,ENE,74,0.0,0.0,97,0.00,,,0.00,Wunderground v.1.15,2013-05-10 10:50:00,
2013-05-10 06:56:00,54.8,53.7,29.92,ENE,74,0.0,0.0,96,0.00,,,0.00,Wunderground v.1.15,2013-05-10 10:56:00,
2013-05-10 07:00:00,55.0,54.2,29.92,ENE,74,0.0,0.0,97,0.00,,,0.00,Wunderground v.1.15,2013-05-10 11:00:00,
2013-05-10 07:05:00,55.2,54.4,29.92,ENE,74,0.0,0.0,97,0.00,,,0.00,Wunderground v.1.15,2013-05-10 11:05:00,
2013-05-10 07:10:00,55.5,54.7,29.92,ENE,74,0.0,2.0,97,0.00,,,0.00,Wunderground v.1.15,2013-05-10 11:10:00,
2013-05-10 07:16:00,55.7,54.6,29.92,ENE,57,1.0,4.0,96,0.00,,,0.00,Wunderground v.1.15,2013-05-10 11:16:00,
2013-05-10 07:21:00,55.7,54.6,29.92,NE,56,2.0,4.0,96,0.00,,,0.00,Wunderground v.1.15,2013-05-10 11:21:00,
2013-05-10 07:25:00,56.0,54.6,29.92,NE,56,2.0,4.0,95,0.00,,,0.00,Wunderground v.1.15,2013-05-10 11:25:00,
2013-05-10 07:31:00,56.4,54.7,29.92,NE,56,2.0,2.0,94,0.00,,,0.00,Wunderground v.1.15,2013-05-10 11:31:00,
2013-05-10 07:40:00,57.1,54.8,29.93,NE,56,2.0,2.0,92,0.00,,,0.00,Wunderground v.1.15,2013-05-10 11:40:00,
2013-05-10 07:46:00,57.7,55.4,29.93,NE,55,1.0,3.0,92,0.00,,,0.00,Wunderground v.1.15,2013-05-10 11:46:00,
2013-05-10 07:51:00,58.1,55.2,29.94,WSW,248,1.0,2.0,90,0.00,,,0.00,Wunderground v.1.15,2013-05-10 11:51:00,
2013-05-10 07:56:00,58.7,55.2,29.94,West,269,3.0,3.0,88,0.00,,,0.00,Wunderground v.1.15,2013-05-10 11:56:00,
2013-05-10 08:00:00,59.0,55.4,29.94,West,269,2.0,2.0,88,0.00,,,0.00,Wunderground v.1.15,2013-05-10 12:00:00,
2013-05-10 08:06:00,59.4,55.5,29.94,North,349,1.0,2.0,87,0.00,,,0.00,Wunderground v.1.15,2013-05-10 12:06:00,
2013-05-10 08:11:00,59.6,55.4,29.94,NNW,338,2.0,2.0,86,0.00,,,0.00,Wunderground v.1.15,2013-05-10 12:11:00,
2013-05-10 08:15:00,59.8,55.6,29.94,NW,312,2.0,2.0,86,0.00,,,0.00,Wunderground v.1.15,2013-05-10 12:15:00,
2013-05-10 08:21:00,59.8,55.3,29.94,WNW,292,3.0,3.0,85,0.00,,,0.00,Wunderground v.1.15,2013-05-10 12:21:00,
2013-05-10 08:26:00,59.8,55.6,29.94,WNW,285,3.0,3.0,86,0.00,,,0.00,Wunderground v.1.15,2013-05-10 12:26:00,
2013-05-10 08:30:00,59.8,55.6,29.94,SW,217,2.0,2.0,86,0.00,,,0.00,Wunderground v.1.15,2013-05-10 12:30:00,
2013-05-10 08:35:00,60.1,55.9,29.94,NNE,24,1.0,2.0,86,0.00,,,0.00,Wunderground v.1.15,2013-05-10 12:35:00,
2013-05-10 08:41:00,60.0,55.5,29.94,North,5,3.0,5.0,85,0.00,,,0.00,Wunderground v.1.15,2013-05-10 12:41:00,
2013-05-10 08:45:00,59.8,55.3,29.94,NNW,333,4.0,5.0,85,0.00,,,0.00,Wunderground v.1.15,2013-05-10 12:45:00,
2013-05-10 08:50:00,59.8,55.6,29.94,NNE,15,3.0,3.0,86,0.00,,,0.00,Wunderground v.1.15,2013-05-10 12:50:00,
2013-05-10 08:56:00,59.8,55.6,29.94,WNW,285,3.0,3.0,86,0.00,,,0.00,Wunderground v.1.15,2013-05-10 12:56:00,
2013-05-10 09:11:00,59.9,55.4,29.94,WSW,240,2.0,2.0,85,0.00,,,0.00,Wunderground v.1.15,2013-05-10 13:11:00,
2013-05-10 09:16:00,60.1,55.6,29.94,WSW,240,1.0,2.0,85,0.00,,,0.00,Wunderground v.1.15,2013-05-10 13:16:00,
2013-05-10 09:21:00,60.1,55.9,29.94,SW,236,1.0,1.0,86,0.00,,,0.00,Wunderground v.1.15,2013-05-10 13:21:00,
2013-05-10 09:26:00,60.3,56.1,29.93,SW,236,1.0,1.0,86,0.00,,,0.00,Wunderground v.1.15,2013-05-10 13:26:00,
2013-05-10 09:30:00,60.5,55.6,29.94,WNW,293,1.0,3.0,84,0.00,,,0.00,Wunderground v.1.15,2013-05-10 13:30:00,
2013-05-10 09:36:00,60.5,55.6,29.94,SW,234,2.0,3.0,84,0.00,,,0.00,Wunderground v.1.15,2013-05-10 13:36:00,
2013-05-10 09:41:00,60.7,55.8,29.94,NW,311,3.0,3.0,84,0.00,,,0.00,Wunderground v.1.15,2013-05-10 13:41:00,
2013-05-10 09:46:00,61.0,55.8,29.93,NNW,344,3.0,3.0,83,0.00,,,0.00,Wunderground v.1.15,2013-05-10 13:46:00,
2013-05-10 09:51:00,61.1,55.9,29.94,North,360,2.0,3.0,83,0.00,,,0.00,Wunderground v.1.15,2013-05-10 13:51:00,
2013-05-10 09:56:00,61.2,56.0,29.94,NNW,327,2.0,3.0,83,0.00,,,0.00,Wunderground v.1.15,2013-05-10 13:56:00,
2013-05-10 10:01:00,61.5,56.3,29.94,WSW,247,2.0,3.0,83,0.00,,,0.00,Wunderground v.1.15,2013-05-10 14:01:00,
2013-05-10 10:05:00,61.4,56.2,29.94,West,261,3.0,3.0,83,0.00,,,0.00,Wunderground v.1.15,2013-05-10 14:05:00,
2013-05-10 10:10:00,61.2,56.0,29.94,WSW,240,4.0,4.0,83,0.00,,,0.00,Wunderground v.1.15,2013-05-10 14:10:00,
2013-05-10 10:20:00,61.5,56.0,29.95,SW,227,4.0,4.0,82,0.00,,,0.00,Wunderground v.1.15,2013-05-10 14:20:00,
2013-05-10 10:25:00,61.6,55.7,29.95,WSW,242,3.0,4.0,81,0.00,,,0.00,Wunderground v.1.15,2013-05-10 14:25:00,
2013-05-10 10:31:00,61.4,55.9,29.95,North,5,3.0,5.0,82,0.00,,,0.00,Wunderground v.1.15,2013-05-10 14:31:00,
2013-05-10 10:36:00,61.4,55.9,29.95,NNE,12,4.0,5.0,82,0.00,,,0.00,Wunderground v.1.15,2013-05-10 14:36:00,
2013-05-10 10:41:00,61.3,56.1,29.95,WNW,292,3.0,3.0,83,0.00,,,0.00,Wunderground v.1.15,2013-05-10 14:41:00,
2013-05-10 10:50:00,61.1,55.9,29.95,WSW,241,3.0,6.0,83,0.00,,,0.00,Wunderground v.1.15,2013-05-10 14:50:00,
2013-05-10 10:56:00,61.1,55.9,29.96,WNW,301,4.0,6.0,83,0.00,,,0.00,Wunderground v.1.15,2013-05-10 14:56:00,
2013-05-10 11:06:00,61.0,55.8,29.96,West,271,3.0,4.0,83,0.00,,,0.00,Wunderground v.1.15,2013-05-10 15:06:00,
2013-05-10 11:11:00,60.9,56.4,29.96,WNW,284,2.0,4.0,85,0.00,,,0.00,Wunderground v.1.15,2013-05-10 15:11:00,
2013-05-10 11:21:00,61.1,56.2,29.96,WNW,284,3.0,3.0,84,0.00,,,0.00,Wunderground v.1.15,2013-05-10 15:21:00,
2013-05-10 11:31:00,62.2,57.3,29.95,ENE,59,2.0,2.0,84,0.00,,,0.00,Wunderground v.1.15,2013-05-10 15:31:00,
2013-05-10 11:36:00,62.8,56.2,29.95,NNE,13,2.0,4.0,79,0.00,,,0.00,Wunderground v.1.15,2013-05-10 15:36:00,
2013-05-10 11:41:00,62.9,56.3,29.95,NNW,346,4.0,4.0,79,0.00,,,0.00,Wunderground v.1.15,2013-05-10 15:41:00,
2013-05-10 11:46:00,63.4,56.8,29.95,WNW,291,4.0,4.0,79,0.00,,,0.00,Wunderground v.1.15,2013-05-10 15:46:00,
2013-05-10 11:56:00,63.9,56.5,29.95,North,360,3.0,7.0,77,0.00,,,0.00,Wunderground v.1.15,2013-05-10 15:56:00,
2013-05-10 12:01:00,64.0,56.6,29.95,NNW,327,3.0,3.0,77,0.00,,,0.00,Wunderground v.1.15,2013-05-10 16:01:00,
2013-05-10 12:05:00,64.2,56.1,29.95,NNW,342,2.0,3.0,75,0.00,,,0.00,Wunderground v.1.15,2013-05-10 16:05:00,
2013-05-10 12:11:00,64.5,56.4,29.94,NNW,342,2.0,3.0,75,0.00,,,0.00,Wunderground v.1.15,2013-05-10 16:11:00,
2013-05-10 12:16:00,64.8,54.4,29.94,WSW,249,2.0,2.0,69,0.00,,,0.00,Wunderground v.1.15,2013-05-10 16:16:00,
2013-05-10 12:21:00,65.6,55.5,29.94,North,350,2.0,2.0,70,0.00,,,0.00,Wunderground v.1.15,2013-05-10 16:21:00,
2013-05-10 12:26:00,66.7,55.4,29.94,WSW,239,3.0,3.0,67,0.00,,,0.00,Wunderground v.1.15,2013-05-10 16:26:00,
2013-05-10 12:31:00,67.2,54.6,29.94,NNE,14,3.0,3.0,64,0.00,,,0.00,Wunderground v.1.15,2013-05-10 16:31:00,
2013-05-10 12:36:00,67.4,56.5,29.94,NNE,15,4.0,11.0,68,0.00,,,0.00,Wunderground v.1.15,2013-05-10 16:36:00,
2013-05-10 12:41:00,67.0,54.4,29.94,North,360,5.0,11.0,64,0.00,,,0.00,Wunderground v.1.15,2013-05-10 16:41:00,
2013-05-10 12:46:00,66.7,54.1,29.94,NNE,13,4.0,4.0,64,0.00,,,0.00,Wunderground v.1.15,2013-05-10 16:46:00,
2013-05-10 12:50:00,67.3,55.5,29.93,NNE,16,3.0,7.0,66,0.00,,,0.00,Wunderground v.1.15,2013-05-10 16:50:00,
2013-05-10 12:56:00,67.8,55.2,29.93,NNE,15,4.0,4.0,64,0.00,,,0.00,Wunderground v.1.15,2013-05-10 16:56:00,
2013-05-10 13:01:00,68.4,54.9,29.92,East,86,4.0,6.0,62,0.00,,,0.00,Wunderground v.1.15,2013-05-10 17:01:00,
2013-05-10 13:11:00,68.1,54.1,29.92,NW,326,4.0,4.0,61,0.00,,,0.00,Wunderground v.1.15,2013-05-10 17:11:00,
2013-05-10 13:16:00,67.3,54.3,29.92,North,9,5.0,5.0,63,0.00,,,0.00,Wunderground v.1.15,2013-05-10 17:16:00,
2013-05-10 13:21:00,67.4,55.2,29.92,NW,311,4.0,5.0,65,0.00,,,0.00,Wunderground v.1.15,2013-05-10 17:21:00,
2013-05-10 13:25:00,67.9,55.7,29.92,NNE,13,4.0,5.0,65,0.00,,,0.00,Wunderground v.1.15,2013-05-10 17:25:00,
2013-05-10 13:30:00,68.6,55.9,29.92,NNE,23,5.0,8.0,64,0.00,,,0.00,Wunderground v.1.15,2013-05-10 17:30:00,
2013-05-10 13:41:00,69.0,54.1,29.92,NNE,24,6.0,6.0,59,0.00,,,0.00,Wunderground v.1.15,2013-05-10 17:41:00,
2013-05-10 13:46:00,69.1,53.7,29.91,NW,321,4.0,6.0,58,0.00,,,0.00,Wunderground v.1.15,2013-05-10 17:46:00,
2013-05-10 13:50:00,68.7,52.4,29.91,WSW,238,3.0,3.0,56,0.00,,,0.00,Wunderground v.1.15,2013-05-10 17:50:00,
2013-05-10 13:55:00,68.9,54.0,29.91,NE,44,3.0,3.0,59,0.00,,,0.00,Wunderground v.1.15,2013-05-10 17:55:00,
2013-05-10 14:01:00,69.6,55.6,29.91,NE,54,3.0,5.0,61,0.00,,,0.00,Wunderground v.1.15,2013-05-10 18:01:00,
2013-05-10 14:06:00,70.1,54.2,29.91,ESE,111,2.0,5.0,57,0.00,,,0.00,Wunderground v.1.15,2013-05-10 18:06:00,
2013-05-10 14:11:00,70.1,53.2,29.91,North,360,3.0,6.0,55,0.00,,,0.00,Wunderground v.1.15,2013-05-10 18:11:00,
2013-05-10 14:21:00,69.0,52.6,29.90,NW,311,3.0,6.0,56,0.00,,,0.00,Wunderground v.1.15,2013-05-10 18:21:00,
2013-05-10 14:26:00,69.0,53.6,29.90,NE,39,2.0,2.0,58,0.00,,,0.00,Wunderground v.1.15,2013-05-10 18:26:00,
2013-05-10 14:31:00,69.5,53.6,29.90,East,82,2.0,6.0,57,0.00,,,0.00,Wunderground v.1.15,2013-05-10 18:31:00,
2013-05-10 14:41:00,69.1,52.2,29.90,SSE,148,3.0,3.0,55,0.00,,,0.00,Wunderground v.1.15,2013-05-10 18:41:00,
2013-05-10 14:46:00,69.3,52.4,29.90,SSW,206,2.0,6.0,55,0.00,,,0.00,Wunderground v.1.15,2013-05-10 18:46:00,
2013-05-10 14:51:00,69.3,53.4,29.90,South,191,2.0,6.0,57,0.00,,,0.00,Wunderground v.1.15,2013-05-10 18:51:00,
2013-05-10 14:56:00,69.2,53.3,29.90,SW,222,3.0,3.0,57,0.00,,,0.00,Wunderground v.1.15,2013-05-10 18:56:00,
2013-05-10 15:01:00,69.6,52.2,29.90,SW,222,2.0,2.0,54,0.00,,,0.00,Wunderground v.1.15,2013-05-10 19:01:00,
2013-05-10 15:06:00,70.4,54.0,29.90,SW,225,0.0,2.0,56,0.00,,,0.00,Wunderground v.1.15,2013-05-10 19:06:00,
2013-05-10 15:11:00,70.5,52.0,29.90,SE,126,1.0,3.0,52,0.00,,,0.00,Wunderground v.1.15,2013-05-10 19:11:00,
2013-05-10 15:21:00,70.3,51.8,29.90,West,279,2.0,2.0,52,0.00,,,0.00,Wunderground v.1.15,2013-05-10 19:21:00,
2013-05-10 15:26:00,70.1,52.7,29.89,West,279,3.0,3.0,54,0.00,,,0.00,Wunderground v.1.15,2013-05-10 19:26:00,
2013-05-10 15:31:00,70.2,51.2,29.89,North,349,1.0,3.0,51,0.00,,,0.00,Wunderground v.1.15,2013-05-10 19:31:00,
2013-05-10 15:36:00,70.4,51.4,29.89,North,349,0.0,0.0,51,0.00,,,0.00,Wunderground v.1.15,2013-05-10 19:36:00,
2013-05-10 15:41:00,70.7,52.2,29.89,North,349,0.0,0.0,52,0.00,,,0.00,Wunderground v.1.15,2013-05-10 19:41:00,
2013-05-10 15:46:00,70.8,52.8,29.89,SSW,200,1.0,3.0,53,0.00,,,0.00,Wunderground v.1.15,2013-05-10 19:46:00,
2013-05-10 15:50:00,70.7,52.7,29.89,North,360,1.0,4.0,53,0.00,,,0.00,Wunderground v.1.15,2013-05-10 19:50:00,
2013-05-10 15:56:00,70.8,52.3,29.89,North,5,2.0,5.0,52,0.00,,,0.00,Wunderground v.1.15,2013-05-10 19:56:00,
2013-05-10 16:05:00,71.1,53.1,29.88,North,5,1.0,1.0,53,0.00,,,0.00,Wunderground v.1.15,2013-05-10 20:05:00,
2013-05-10 16:11:00,71.2,52.1,29.88,NNW,348,1.0,1.0,51,0.00,,,0.00,Wunderground v.1.15,2013-05-10 20:11:00,
2013-05-10 16:16:00,70.9,52.4,29.88,NW,325,2.0,2.0,52,0.00,,,0.00,Wunderground v.1.15,2013-05-10 20:16:00,
2013-05-10 16:21:00,70.7,52.7,29.89,WNW,290,2.0,2.0,53,0.00,,,0.00,Wunderground v.1.15,2013-05-10 20:21:00,
2013-05-10 16:26:00,70.7,52.2,29.89,North,355,1.0,3.0,52,0.00,,,0.00,Wunderground v.1.15,2013-05-10 20:26:00,
2013-05-10 16:30:00,70.8,52.8,29.89,North,355,1.0,3.0,53,0.00,,,0.00,Wunderground v.1.15,2013-05-10 20:30:00,
2013-05-10 16:35:00,70.6,52.6,29.88,North,355,2.0,2.0,53,0.00,,,0.00,Wunderground v.1.15,2013-05-10 20:35:00,
2013-05-10 16:41:00,70.7,52.7,29.89,North,355,1.0,2.0,53,0.00,,,0.00,Wunderground v.1.15,2013-05-10 20:41:00,
2013-05-10 16:45:00,70.7,52.2,29.89,NW,311,1.0,3.0,52,0.00,,,0.00,Wunderground v.1.15,2013-05-10 20:45:00,
2013-05-10 16:50:00,70.7,53.2,29.89,WNW,294,2.0,3.0,54,0.00,,,0.00,Wunderground v.1.15,2013-05-10 20:50:00,
2013-05-10 16:56:00,70.4,52.4,29.88,WSW,246,2.0,2.0,53,0.00,,,0.00,Wunderground v.1.15,2013-05-10 20:56:00,
2013-05-10 17:00:00,70.3,52.4,29.88,WNW,300,2.0,2.0,53,0.00,,,0.00,Wunderground v.1.15,2013-05-10 21:00:00,
2013-05-10 17:05:00,70.1,52.7,29.88,NNW,348,2.0,2.0,54,0.00,,,0.00,Wunderground v.1.15,2013-05-10 21:05:00,
2013-05-10 17:10:00,70.0,53.1,29.88,WNW,292,1.0,2.0,55,0.00,,,0.00,Wunderground v.1.15,2013-05-10 21:10:00,
2013-05-10 17:16:00,69.9,52.0,29.88,WNW,292,1.0,2.0,53,0.00,,,0.00,Wunderground v.1.15,2013-05-10 21:16:00,
2013-05-10 17:20:00,69.9,52.5,29.88,WNW,292,1.0,1.0,54,0.00,,,0.00,Wunderground v.1.15,2013-05-10 21:20:00,
2013-05-10 17:25:00,69.9,51.5,29.88,WNW,292,0.0,1.0,52,0.00,,,0.00,Wunderground v.1.15,2013-05-10 21:25:00,
2013-05-10 17:35:00,67.9,54.8,29.89,SSE,153,5.0,9.0,63,0.00,,,0.00,Wunderground v.1.15,2013-05-10 21:35:00,
2013-05-10 17:40:00,66.4,55.9,29.89,SSE,153,8.0,9.0,69,0.00,,,0.00,Wunderground v.1.15,2013-05-10 21:40:00,
2013-05-10 17:45:00,65.3,56.0,29.89,SSE,157,7.0,7.0,72,0.00,,,0.00,Wunderground v.1.15,2013-05-10 21:45:00,
2013-05-10 17:50:00,64.8,56.3,29.89,SSE,158,6.0,7.0,74,0.00,,,0.00,Wunderground v.1.15,2013-05-10 21:50:00,
2013-05-10 17:55:00,64.4,56.3,29.88,SSE,161,5.0,5.0,75,0.00,,,0.00,Wunderground v.1.15,2013-05-10 21:55:00,
2013-05-10 18:00:00,64.4,55.9,29.88,SE,140,5.0,5.0,74,0.00,,,0.00,Wunderground v.1.15,2013-05-10 22:00:00,
2013-05-10 18:05:00,64.5,56.0,29.88,SSE,166,4.0,5.0,74,0.00,,,0.00,Wunderground v.1.15,2013-05-10 22:05:00,
2013-05-10 18:10:00,64.6,56.1,29.88,SE,130,3.0,3.0,74,0.00,,,0.00,Wunderground v.1.15,2013-05-10 22:10:00,
2013-05-10 18:15:00,64.7,55.8,29.88,SSW,192,2.0,3.0,73,0.00,,,0.00,Wunderground v.1.15,2013-05-10 22:15:00,
2013-05-10 18:20:00,64.8,55.9,29.88,South,191,1.0,1.0,73,0.00,,,0.00,Wunderground v.1.15,2013-05-10 22:20:00,
2013-05-10 18:25:00,64.8,55.6,29.88,South,191,0.0,1.0,72,0.00,,,0.00,Wunderground v.1.15,2013-05-10 22:25:00,
2013-05-10 18:30:00,64.9,56.0,29.88,South,191,0.0,0.0,73,0.00,,,0.00,Wunderground v.1.15,2013-05-10 22:30:00,
2013-05-10 18:35:00,64.9,56.4,29.87,South,191,0.0,2.0,74,0.00,,,0.00,Wunderground v.1.15,2013-05-10 22:35:00,
2013-05-10 18:40:00,64.8,57.1,29.87,North,5,1.0,1.0,76,0.00,,,0.00,Wunderground v.1.15,2013-05-10 22:40:00,
2013-05-10 18:45:00,64.7,56.2,29.88,North,5,1.0,1.0,74,0.00,,,0.00,Wunderground v.1.15,2013-05-10 22:45:00,
2013-05-10 18:50:00,64.7,57.3,29.88,North,5,0.0,0.0,77,0.00,,,0.00,Wunderground v.1.15,2013-05-10 22:50:00,
2013-05-10 18:55:00,64.7,57.3,29.87,North,5,0.0,0.0,77,0.00,,,0.00,Wunderground v.1.15,2013-05-10 22:55:00,
2013-05-10 19:00:00,64.6,57.2,29.87,NNE,26,0.0,0.0,77,0.00,,,0.00,Wunderground v.1.15,2013-05-10 23:00:00,
2013-05-10 19:05:00,64.4,57.4,29.87,NNE,26,0.0,0.0,78,0.00,,,0.00,Wunderground v.1.15,2013-05-10 23:05:00,
2013-05-10 19:10:00,64.4,57.7,29.87,NNE,26,0.0,0.0,79,0.00,,,0.00,Wunderground v.1.15,2013-05-10 23:10:00,
2013-05-10 19:15:00,64.2,57.9,29.87,NNE,26,0.0,0.0,80,0.00,,,0.00,Wunderground v.1.15,2013-05-10 23:15:00,
2013-05-10 19:20:00,64.0,57.4,29.87,NNE,26,0.0,0.0,79,0.00,,,0.00,Wunderground v.1.15,2013-05-10 23:20:00,
2013-05-10 19:25:00,63.7,57.8,29.87,NNE,26,0.0,1.0,81,0.00,,,0.00,Wunderground v.1.15,2013-05-10 23:25:00,
2013-05-10 19:30:00,63.2,57.6,29.88,NNE,26,0.0,0.0,82,0.00,,,0.00,Wunderground v.1.15,2013-05-10 23:30:00,
2013-05-10 19:35:00,63.0,57.8,29.87,NNE,26,0.0,0.0,83,0.00,,,0.00,Wunderground v.1.15,2013-05-10 23:35:00,
2013-05-10 19:40:00,62.8,57.9,29.87,NNE,26,0.0,0.0,84,0.00,,,0.00,Wunderground v.1.15,2013-05-10 23:40:00,
2013-05-10 19:45:00,62.6,57.7,29.87,NNE,26,0.0,0.0,84,0.00,,,0.00,Wunderground v.1.15,2013-05-10 23:45:00,
2013-05-10 19:50:00,62.3,57.7,29.87,NNE,26,0.0,0.0,85,0.00,,,0.00,Wunderground v.1.15,2013-05-10 23:50:00,
2013-05-10 19:55:00,62.0,57.8,29.87,NNE,26,0.0,0.0,86,0.00,,,0.00,Wunderground v.1.15,2013-05-10 23:55:00,
2013-05-10 20:05:00,61.5,57.6,29.87,NNE,26,0.0,0.0,87,0.00,,,0.00,Wunderground v.1.15,2013-05-11 00:05:00,
2013-05-10 20:10:00,61.2,57.3,29.87,NNE,26,0.0,0.0,87,0.00,,,0.00,Wunderground v.1.15,2013-05-11 00:10:00,
2013-05-10 20:15:00,60.9,57.0,29.87,NNE,26,0.0,0.0,87,0.00,,,0.00,Wunderground v.1.15,2013-05-11 00:15:00,
2013-05-10 20:20:00,60.7,56.8,29.86,NNE,26,0.0,0.0,87,0.00,,,0.00,Wunderground v.1.15,2013-05-11 00:20:00,
2013-05-10 20:25:00,60.4,56.8,29.86,NNE,26,0.0,0.0,88,0.00,,,0.00,Wunderground v.1.15,2013-05-11 00:25:00,
2013-05-10 20:30:00,60.1,56.5,29.86,NNE,26,0.0,0.0,88,0.00,,,0.00,Wunderground v.1.15,2013-05-11 00:30:00,
2013-05-10 20:35:00,59.7,56.1,29.86,NNE,26,0.0,0.0,88,0.00,,,0.00,Wunderground v.1.15,2013-05-11 00:35:00,
2013-05-10 20:40:00,59.3,56.1,29.86,NNE,26,0.0,0.0,89,0.00,,,0.00,Wunderground v.1.15,2013-05-11 00:40:00,
2013-05-10 20:45:00,58.9,55.7,29.86,NNE,26,0.0,0.0,89,0.00,,,0.00,Wunderground v.1.15,2013-05-11 00:45:00,
2013-05-10 20:50:00,58.5,55.3,29.86,NNE,26,0.0,0.0,89,0.00,,,0.00,Wunderground v.1.15,2013-05-11 00:50:00,
2013-05-10 20:55:00,58.2,55.3,29.86,NNE,26,0.0,0.0,90,0.00,,,0.00,Wunderground v.1.15,2013-05-11 00:55:00,
2013-05-10 21:00:00,57.9,55.0,29.86,NNE,26,0.0,0.0,90,0.00,,,0.00,Wunderground v.1.15,2013-05-11 01:00:00,
2013-05-10 21:05:00,57.7,55.1,29.86,NNE,26,0.0,0.0,91,0.00,,,0.00,Wunderground v.1.15,2013-05-11 01:05:00,
2013-05-10 21:10:00,57.5,54.9,29.86,NNE,26,0.0,0.0,91,0.00,,,0.00,Wunderground v.1.15,2013-05-11 01:10:00,
2013-05-10 21:15:00,57.4,54.8,29.86,NNE,26,0.0,0.0,91,0.00,,,0.00,Wunderground v.1.15,2013-05-11 01:15:00,
2013-05-10 21:20:00,57.0,54.4,29.86,NNE,26,0.0,0.0,91,0.00,,,0.00,Wunderground v.1.15,2013-05-11 01:20:00,
2013-05-10 21:25:00,56.8,54.2,29.86,NNE,26,0.0,0.0,91,0.00,,,0.00,Wunderground v.1.15,2013-05-11 01:25:00,
2013-05-10 21:30:00,56.6,54.0,29.86,NNE,26,0.0,0.0,91,0.00,,,0.00,Wunderground v.1.15,2013-05-11 01:30:00,
2013-05-10 21:35:00,56.4,54.1,29.86,NNE,26,0.0,0.0,92,0.00,,,0.00,Wunderground v.1.15,2013-05-11 01:35:00,
2013-05-10 21:40:00,56.2,53.9,29.86,NNE,26,0.0,0.0,92,0.00,,,0.00,Wunderground v.1.15,2013-05-11 01:40:00,
2013-05-10 21:45:00,56.0,53.7,29.86,NNE,26,0.0,0.0,92,0.00,,,0.00,Wunderground v.1.15,2013-05-11 01:45:00,
2013-05-10 21:50:00,55.9,53.6,29.86,NNE,26,0.0,0.0,92,0.00,,,0.00,Wunderground v.1.15,2013-05-11 01:50:00,
2013-05-10 21:55:00,55.8,53.5,29.85,NNE,26,0.0,0.0,92,0.00,,,0.00,Wunderground v.1.15,2013-05-11 01:55:00,
2013-05-10 22:00:00,55.7,53.7,29.85,NNE,26,0.0,0.0,93,0.00,,,0.00,Wunderground v.1.15,2013-05-11 02:00:00,
2013-05-10 22:05:00,55.7,53.7,29.85,NNE,26,0.0,0.0,93,0.00,,,0.00,Wunderground v.1.15,2013-05-11 02:05:00,
2013-05-10 22:10:00,55.6,53.6,29.85,NNE,26,0.0,0.0,93,0.00,,,0.00,Wunderground v.1.15,2013-05-11 02:10:00,
2013-05-10 22:15:00,55.5,53.5,29.85,NNE,26,0.0,0.0,93,0.00,,,0.00,Wunderground v.1.15,2013-05-11 02:15:00,
2013-05-10 22:20:00,55.4,53.4,29.84,NNE,26,0.0,0.0,93,0.00,,,0.00,Wunderground v.1.15,2013-05-11 02:20:00,
2013-05-10 22:25:00,55.4,53.4,29.84,NNE,26,0.0,0.0,93,0.00,,,0.00,Wunderground v.1.15,2013-05-11 02:25:00,
2013-05-10 22:30:00,55.4,53.4,29.84,NNE,26,0.0,0.0,93,0.00,,,0.00,Wunderground v.1.15,2013-05-11 02:30:00,
2013-05-10 22:40:00,55.4,53.4,29.84,NNE,26,0.0,0.0,93,0.00,,,0.00,Wunderground v.1.15,2013-05-11 02:40:00,
2013-05-10 22:45:00,55.4,53.4,29.84,NNE,26,0.0,0.0,93,0.00,,,0.00,Wunderground v.1.15,2013-05-11 02:45:00,
2013-05-10 22:50:00,55.4,53.4,29.84,NNE,26,0.0,0.0,93,0.00,,,0.00,Wunderground v.1.15,2013-05-11 02:50:00,
2013-05-10 23:00:00,55.4,53.7,29.83,NNE,26,0.0,0.0,94,0.00,,,0.00,Wunderground v.1.15,2013-05-11 03:00:00,
2013-05-10 23:05:00,55.4,53.4,29.83,NNE,26,0.0,0.0,93,0.00,,,0.00,Wunderground v.1.15,2013-05-11 03:05:00,
2013-05-10 23:10:00,55.3,53.3,29.83,NNE,26,0.0,0.0,93,0.00,,,0.00,Wunderground v.1.15,2013-05-11 03:10:00,
2013-05-10 23:15:00,55.2,53.2,29.83,NNE,26,0.0,0.0,93,0.00,,,0.00,Wunderground v.1.15,2013-05-11 03:15:00,
2013-05-10 23:20:00,55.1,53.1,29.83,NNE,26,0.0,0.0,93,0.00,,,0.00,Wunderground v.1.15,2013-05-11 03:20:00,
2013-05-10 23:25:00,55.0,53.0,29.83,NNE,26,0.0,0.0,93,0.00,,,0.00,Wunderground v.1.15,2013-05-11 03:25:00,
2013-05-10 23:30:00,54.9,52.9,29.82,NNE,26,0.0,0.0,93,0.00,,,0.00,Wunderground v.1.15,2013-05-11 03:30:00,
2013-05-10 23:35:00,54.7,52.7,29.83,NNE,26,0.0,0.0,93,0.00,,,0.00,Wunderground v.1.15,2013-05-11 03:35:00,
2013-05-10 23:40:00,54.5,52.5,29.82,NNE,26,0.0,0.0,93,0.00,,,0.00,Wunderground v.1.15,2013-05-11 03:40:00,
2013-05-10 23:45:00,54.2,51.9,29.82,NNE,26,0.0,0.0,92,0.00,,,0.00,Wunderground v.1.15,2013-05-11 03:45:00,
2013-05-10 23:55:00,53.9,51.9,29.82,NNE,26,0.0,0.0,93,0.00,,,0.00,Wunderground v.1.15,2013-05-11 03:55:00,